Maldives Meteorological Service

TAFS

Station TAF
VRMM
VRMM 222300Z 2300/2406 27015KT 9999 FEW17TCU TEMPO 2300/2306 27018G35KT 4000 TSRA SCT016 FEW017CB=
VRMH
VRMH 222300Z 2300/2324 28010KT 9999 FEW017TCU TEMPO 2300/2306 27015G30KT 3000 TSRA SCT015 FEW016CB OVC100=
VRMK
VRMK 222300Z 2300/2324 27012KT 9000 -RA SCT017 BKN110 TEMPO 2300/2306 26016G33KT 3000 TSRA/-RA SCT015 FEW016CB OVC090=
VRMT
VRMT 222300Z 2300/2324 24008KT 9000 SCT017TCU TEMPO 2300/2306 4000 TSRA SCT016 FEW017CB BKN110=
VRMG
VRMG 222300Z 2300/2406 25009KT 9999 FEW018TCU TEMPO 2300/2306 5000 -SHRA FEW017CB=